createdAt,value
2023-02-01T00:01:24.062Z,9.30
2023-02-01T00:03:52.199Z,8.40
2023-02-01T00:06:23.411Z,7.30
2023-02-01T00:08:55.700Z,8.00
2023-02-01T00:11:24.372Z,6.70
2023-02-01T00:13:53.003Z,5.60
2023-02-01T00:16:26.837Z,7.60
2023-02-01T00:19:15.224Z,7.10
2023-02-01T00:21:44.956Z,7.50
2023-02-01T00:24:13.239Z,7.00
2023-02-01T00:26:43.306Z,7.10
2023-02-01T00:29:19.432Z,8.50
2023-02-01T00:31:48.180Z,7.80
2023-02-01T00:34:17.307Z,6.40
2023-02-01T00:36:46.301Z,6.40
2023-02-01T00:39:14.438Z,7.30
2023-02-01T00:41:42.624Z,7.50
2023-02-01T00:44:11.345Z,7.20
2023-02-01T00:46:39.418Z,7.60
2023-02-01T00:49:08.467Z,6.40
2023-02-01T00:51:38.005Z,6.90
2023-02-01T00:54:06.689Z,7.70
2023-02-01T00:56:34.864Z,5.70
2023-02-01T00:59:02.820Z,7.00
2023-02-01T01:01:31.491Z,7.40
2023-02-01T01:04:00.248Z,8.70
2023-02-01T01:06:31.099Z,6.90
2023-02-01T01:09:03.036Z,8.00
2023-02-01T01:11:33.431Z,7.50
2023-02-01T01:14:02.918Z,5.70
2023-02-01T01:16:32.108Z,7.10
2023-02-01T01:19:00.273Z,5.80
2023-02-01T01:21:28.980Z,5.70
2023-02-01T01:23:57.400Z,6.50
2023-02-01T01:26:27.758Z,6.40
2023-02-01T01:28:57.642Z,6.00
2023-02-01T01:31:26.485Z,6.50
2023-02-01T01:33:56.046Z,6.10
2023-02-01T01:36:24.982Z,7.50
2023-02-01T01:38:53.824Z,6.10
2023-02-01T01:41:24.012Z,4.80
2023-02-01T01:43:55.784Z,6.00
2023-02-01T01:46:30.170Z,6.30
2023-02-01T01:49:02.782Z,6.10
2023-02-01T01:51:31.569Z,6.20
2023-02-01T01:54:21.230Z,5.80
2023-02-01T01:56:52.265Z,6.10
2023-02-01T01:59:22.125Z,5.80
2023-02-01T02:01:50.409Z,5.60
2023-02-01T02:04:22.016Z,5.00
2023-02-01T02:07:12.870Z,4.90
2023-02-01T02:09:45.378Z,5.90
2023-02-01T02:12:16.206Z,5.80
2023-02-01T02:14:45.144Z,6.10
2023-02-01T02:17:35.406Z,5.70
2023-02-01T02:20:34.562Z,6.90
2023-02-01T02:23:23.679Z,6.00
2023-02-01T02:26:07.603Z,5.40
2023-02-01T02:28:41.884Z,5.10
2023-02-01T02:31:22.638Z,6.80
2023-02-01T02:34:03.076Z,6.10
2023-02-01T02:36:49.926Z,7.10
2023-02-01T02:39:36.717Z,7.10
2023-02-01T02:42:42.743Z,7.30
2023-02-01T02:46:02.031Z,6.90
2023-02-01T02:48:46.019Z,8.20
2023-02-01T02:51:40.065Z,6.70
2023-02-01T02:54:33.829Z,8.10
2023-02-01T02:57:22.205Z,9.20
2023-02-01T03:00:09.426Z,8.80
2023-02-01T03:03:06.193Z,8.10
2023-02-01T03:05:38.710Z,8.60
2023-02-01T03:08:46.826Z,8.10
2023-02-01T03:11:15.332Z,7.20
2023-02-01T03:14:02.131Z,8.50
2023-02-01T03:16:50.470Z,9.50
2023-02-01T03:19:38.696Z,10.20
2023-02-01T03:22:09.220Z,9.10
2023-02-01T03:24:45.037Z,10.30
2023-02-01T03:27:24.536Z,11.30
2023-02-01T03:30:11.285Z,9.80
2023-02-01T03:32:59.895Z,11.40
2023-02-01T03:35:35.004Z,11.50
2023-02-01T03:38:09.354Z,11.30
2023-02-01T03:40:40.694Z,12.10
2023-02-01T03:43:08.741Z,11.80
2023-02-01T03:45:41.843Z,12.00
2023-02-01T03:48:10.227Z,11.60
2023-02-01T03:50:39.797Z,12.50
2023-02-01T03:53:09.661Z,11.80
2023-02-01T03:55:37.797Z,12.80
2023-02-01T03:58:12.934Z,12.30
2023-02-01T04:00:41.348Z,11.60
2023-02-01T04:03:09.348Z,13.40
2023-02-01T04:05:37.528Z,11.20
2023-02-01T04:08:08.133Z,14.90
2023-02-01T04:10:38.765Z,12.10
2023-02-01T04:13:06.851Z,14.10
2023-02-01T04:15:36.053Z,14.50
2023-02-01T04:18:04.329Z,12.20
2023-02-01T04:20:32.683Z,13.90
2023-02-01T04:23:03.593Z,16.80
2023-02-01T04:25:32.302Z,14.70
2023-02-01T04:28:01.071Z,16.30
2023-02-01T04:30:30.415Z,15.90
2023-02-01T04:32:58.515Z,13.40
2023-02-01T04:35:31.034Z,13.90
2023-02-01T04:38:00.044Z,15.00
2023-02-01T04:40:29.219Z,15.50
2023-02-01T04:42:57.476Z,16.40
2023-02-01T04:45:25.520Z,13.90
2023-02-01T04:47:54.178Z,18.60
2023-02-01T04:50:22.756Z,14.50
2023-02-01T04:52:51.321Z,14.20
2023-02-01T04:55:19.963Z,12.70
2023-02-01T04:57:47.991Z,15.00
2023-02-01T05:00:17.007Z,15.90
2023-02-01T05:02:45.391Z,16.40
2023-02-01T05:05:13.726Z,16.30
2023-02-01T05:07:41.986Z,14.80
2023-02-01T05:10:10.823Z,15.20
2023-02-01T05:12:57.873Z,16.70
2023-02-01T05:15:25.911Z,16.00
2023-02-01T05:17:54.065Z,14.50
2023-02-01T05:20:22.463Z,14.00
2023-02-01T05:22:51.229Z,14.80
2023-02-01T05:25:50.822Z,14.60
2023-02-01T05:28:18.930Z,15.20
2023-02-01T05:30:47.131Z,17.40
2023-02-01T05:33:15.332Z,15.90
2023-02-01T05:35:43.528Z,17.30
2023-02-01T05:38:12.172Z,17.20
2023-02-01T05:40:40.645Z,16.20
2023-02-01T05:43:08.862Z,17.40
2023-02-01T05:45:37.557Z,18.10
2023-02-01T09:15:54.998Z,17.20
2023-02-01T09:18:23.270Z,12.60
2023-02-01T09:20:51.490Z,13.10
2023-02-01T09:23:21.431Z,12.00
2023-02-01T09:25:52.543Z,11.50
2023-02-01T09:28:21.119Z,11.00
2023-02-01T09:30:49.242Z,13.30
2023-02-01T09:33:18.710Z,12.60
2023-02-01T09:35:47.025Z,12.90
2023-02-01T09:38:15.709Z,9.80
2023-02-01T09:40:46.264Z,12.20
2023-02-01T09:43:52.652Z,11.70
2023-02-01T09:46:23.844Z,10.20
2023-02-01T09:48:55.038Z,8.30
2023-02-01T09:51:25.628Z,8.50
2023-02-01T09:54:18.875Z,7.00
2023-02-01T09:56:52.106Z,11.80
2023-02-01T09:59:32.081Z,8.00
2023-02-01T10:02:00.807Z,9.20
2023-02-01T10:04:29.853Z,10.60
2023-02-01T10:06:59.163Z,9.90
2023-02-01T10:09:33.741Z,9.10
2023-02-01T10:12:23.804Z,8.20
2023-02-01T10:15:35.275Z,8.20
2023-02-01T10:18:25.550Z,9.00
2023-02-01T10:20:58.872Z,8.90
2023-02-01T10:23:43.443Z,9.80
2023-02-01T10:26:40.717Z,11.20
2023-02-01T10:29:17.135Z,11.10
2023-02-01T10:31:45.992Z,8.70
2023-02-01T10:34:19.515Z,10.30
2023-02-01T10:36:56.565Z,8.70
2023-02-01T10:39:24.909Z,9.50
2023-02-01T10:41:53.020Z,7.90
2023-02-01T10:44:25.235Z,7.20
2023-02-01T10:46:53.486Z,6.70
2023-02-01T10:49:43.329Z,6.80
2023-02-01T10:52:32.655Z,6.60
2023-02-01T10:55:26.480Z,8.90
2023-02-01T11:00:26.790Z,7.80
2023-02-01T11:02:55.506Z,7.90
2023-02-01T11:05:24.764Z,8.50
2023-02-01T11:07:55.969Z,6.70
2023-02-01T11:10:37.131Z,9.30
2023-02-01T11:13:05.491Z,6.50
2023-02-01T11:15:34.193Z,7.40
2023-02-01T11:18:15.697Z,7.60
2023-02-01T11:20:44.194Z,5.90
2023-02-01T11:23:15.675Z,6.90
2023-02-01T11:25:58.477Z,6.60
2023-02-01T11:28:34.555Z,7.90
2023-02-01T11:31:05.848Z,7.50
2023-02-01T11:33:36.260Z,7.30
2023-02-01T11:36:22.075Z,7.40
2023-02-01T11:39:10.385Z,7.20
2023-02-01T11:41:45.853Z,9.10
2023-02-01T11:44:22.520Z,9.40
2023-02-01T11:46:50.672Z,7.80
2023-02-01T11:49:26.706Z,8.40
2023-02-01T11:52:39.040Z,8.20
2023-02-01T11:55:34.777Z,6.50
2023-02-01T11:58:28.466Z,7.70
2023-02-01T12:01:27.959Z,6.50
2023-02-01T12:04:02.005Z,7.50
2023-02-01T12:06:39.199Z,5.60
2023-02-01T12:09:27.333Z,8.00
2023-02-01T12:12:07.779Z,7.10
2023-02-01T12:15:16.383Z,7.00
2023-02-01T12:17:57.089Z,8.80
2023-02-01T12:23:23.227Z,8.70
2023-02-01T12:25:54.665Z,7.80
2023-02-01T12:28:58.079Z,9.10
2023-02-01T12:31:54.275Z,9.40
2023-02-01T12:34:52.136Z,9.80
2023-02-01T12:37:37.633Z,9.10
2023-02-01T12:40:20.671Z,8.00
2023-02-01T12:43:11.590Z,8.00
2023-02-01T12:45:50.948Z,8.70
2023-02-01T12:48:31.231Z,10.40
2023-02-01T12:51:10.449Z,7.20
2023-02-01T12:53:46.998Z,8.50
2023-02-01T12:56:22.333Z,8.20
2023-02-01T12:59:01.876Z,8.80
2023-02-01T13:01:40.542Z,10.20
2023-02-01T13:04:20.316Z,11.30
2023-02-01T13:07:15.535Z,9.90
2023-02-01T13:09:52.429Z,8.90
2023-02-01T13:12:32.255Z,8.40
2023-02-01T13:15:22.984Z,8.10
2023-02-01T13:17:54.697Z,10.40
2023-02-01T13:20:28.171Z,10.00
2023-02-01T13:23:00.799Z,10.90
2023-02-01T13:25:32.053Z,6.20
2023-02-01T13:28:05.329Z,10.90
2023-02-01T13:33:52.404Z,9.20
2023-02-01T13:36:32.708Z,10.40
2023-02-01T13:39:34.600Z,10.50
2023-02-01T13:42:04.461Z,10.80
2023-02-01T17:45:40.711Z,22.10
2023-02-01T17:48:08.911Z,24.60
2023-02-01T17:50:43.418Z,23.30
2023-02-01T17:53:15.311Z,26.10
2023-02-01T17:55:45.336Z,23.90
2023-02-01T17:58:14.937Z,20.40
2023-02-01T18:00:43.990Z,20.30
2023-02-01T18:03:30.756Z,15.50
2023-02-01T18:05:59.595Z,16.00
2023-02-01T18:08:29.656Z,15.40
2023-02-01T18:11:00.928Z,14.90
2023-02-01T18:13:31.414Z,14.40
2023-02-01T18:16:00.199Z,13.30
2023-02-01T18:18:31.411Z,11.60
2023-02-01T18:20:59.831Z,12.20
2023-02-01T18:23:28.286Z,11.90
2023-02-01T18:25:56.355Z,12.70
2023-02-01T18:28:24.663Z,13.20
2023-02-01T18:30:52.968Z,12.70
2023-02-01T18:33:22.417Z,13.90
2023-02-01T18:35:50.761Z,14.00
2023-02-01T18:38:19.100Z,12.20
2023-02-01T18:41:01.990Z,12.80
2023-02-01T18:43:30.207Z,10.80
2023-02-01T18:45:59.452Z,11.90
2023-02-01T18:48:28.190Z,11.80
2023-02-01T18:50:58.513Z,12.90
2023-02-01T18:53:27.695Z,13.20
2023-02-01T18:55:59.346Z,11.10
2023-02-01T18:58:27.563Z,11.70
2023-02-01T19:00:57.902Z,12.50
2023-02-01T19:03:28.892Z,11.90
2023-02-01T19:05:57.479Z,11.20
2023-02-01T19:08:27.398Z,10.90
2023-02-01T19:10:55.472Z,10.80
2023-02-01T19:13:26.123Z,10.80
2023-02-01T19:15:57.041Z,11.20
2023-02-01T19:18:25.279Z,11.10
2023-02-01T19:20:55.122Z,11.00
2023-02-01T19:23:23.684Z,10.50
2023-02-01T19:25:52.458Z,10.30
2023-02-01T19:28:20.860Z,9.80
2023-02-01T19:30:49.285Z,11.80
2023-02-01T19:33:17.672Z,10.50
2023-02-01T19:35:45.970Z,14.10
2023-02-01T19:38:14.896Z,12.00
2023-02-01T19:40:43.617Z,10.80
2023-02-01T19:43:12.255Z,11.50
2023-02-01T19:45:40.416Z,9.30
2023-02-01T19:48:13.238Z,10.50
2023-02-01T19:50:41.551Z,11.10
2023-02-01T19:53:09.698Z,9.70
2023-02-01T19:55:38.263Z,9.20
2023-02-01T19:58:06.490Z,11.60
2023-02-01T20:00:34.708Z,10.20
2023-02-01T20:03:03.035Z,10.80
2023-02-01T20:05:31.229Z,10.40
2023-02-01T20:08:00.744Z,9.20
2023-02-01T20:10:29.824Z,11.00
2023-02-01T20:12:58.316Z,11.70
2023-02-01T20:15:28.650Z,11.30
2023-02-01T20:17:57.151Z,10.80
2023-02-01T20:20:26.369Z,9.60
2023-02-01T20:22:54.338Z,10.20
2023-02-01T20:25:24.111Z,9.70
2023-02-01T20:27:53.311Z,12.00
2023-02-01T20:30:24.869Z,10.40
2023-02-01T20:32:53.603Z,11.00
2023-02-01T20:35:22.752Z,9.40
2023-02-01T20:37:52.054Z,9.10
2023-02-01T20:40:20.110Z,10.40
2023-02-01T20:42:48.949Z,9.30
2023-02-01T20:45:17.599Z,10.10
2023-02-01T20:47:52.830Z,9.40
2023-02-01T20:50:21.139Z,10.40
2023-02-01T20:52:49.876Z,10.30
2023-02-01T20:55:18.035Z,8.60
2023-02-01T20:57:46.302Z,9.40
2023-02-01T21:00:15.666Z,9.80
2023-02-01T21:02:43.901Z,10.00
2023-02-01T21:05:12.135Z,10.50
2023-02-01T21:07:40.763Z,8.40
2023-02-01T21:10:10.441Z,8.60
2023-02-01T21:12:40.186Z,8.20
2023-02-01T21:15:09.288Z,10.90
2023-02-01T21:17:39.518Z,8.70
2023-02-01T21:20:09.348Z,9.20
2023-02-01T21:22:37.698Z,8.40
2023-02-01T21:25:06.483Z,9.60
2023-02-01T21:27:35.067Z,10.50
2023-02-01T21:30:06.360Z,9.50
2023-02-01T21:32:35.434Z,10.90
2023-02-01T21:35:05.273Z,9.60
2023-02-01T21:37:34.522Z,9.10
2023-02-01T21:40:02.593Z,10.80
2023-02-01T21:42:31.128Z,10.50
2023-02-01T21:44:59.683Z,10.80
2023-02-01T21:47:28.269Z,9.10
2023-02-01T21:49:56.508Z,9.50
2023-02-01T21:52:25.592Z,8.40
2023-02-01T21:54:59.562Z,9.80
2023-02-01T21:57:28.778Z,8.80
2023-02-01T21:59:59.027Z,11.90
2023-02-01T22:02:27.353Z,7.30
2023-02-01T22:04:57.690Z,8.70
2023-02-01T22:07:26.089Z,8.40
2023-02-01T22:09:54.166Z,9.60
2023-02-01T22:12:23.233Z,8.50
2023-02-01T22:14:51.545Z,9.40
2023-02-01T22:17:20.077Z,10.90
2023-02-01T22:19:48.029Z,8.00
2023-02-01T22:22:16.831Z,8.10
2023-02-01T22:24:45.534Z,9.40
2023-02-01T22:27:14.780Z,7.70
2023-02-01T22:29:43.583Z,8.10
2023-02-01T22:32:13.343Z,8.20
2023-02-01T22:34:41.588Z,8.60
2023-02-01T22:37:11.173Z,11.50
2023-02-01T22:39:40.771Z,8.30
2023-02-01T22:42:08.852Z,9.00
2023-02-01T22:44:36.864Z,7.20
2023-02-01T22:47:04.974Z,8.00
2023-02-01T22:49:33.383Z,8.20
2023-02-01T22:52:01.981Z,7.40
2023-02-01T22:54:30.424Z,7.70
2023-02-01T22:57:00.276Z,7.40
2023-02-01T22:59:28.554Z,7.50
2023-02-01T23:01:56.694Z,6.40
2023-02-01T23:04:25.580Z,8.00
2023-02-01T23:06:54.016Z,7.40
2023-02-01T23:09:25.787Z,7.70
2023-02-01T23:11:54.572Z,5.90
2023-02-01T23:14:22.533Z,7.80
2023-02-01T23:16:51.322Z,7.30
2023-02-01T23:19:20.998Z,8.10
2023-02-01T23:21:49.601Z,6.70
2023-02-01T23:24:17.556Z,8.40
2023-02-01T23:26:45.875Z,7.20
2023-02-01T23:29:18.458Z,7.60
2023-02-01T23:31:46.741Z,7.60
2023-02-01T23:34:14.755Z,7.10
2023-02-01T23:36:43.295Z,6.60
2023-02-01T23:39:11.196Z,7.30
2023-02-01T23:41:39.180Z,7.20
2023-02-01T23:44:07.689Z,8.50
2023-02-01T23:46:41.568Z,6.40
2023-02-01T23:49:10.203Z,7.30
2023-02-01T23:51:38.211Z,9.00
2023-02-01T23:54:07.193Z,8.20
2023-02-01T23:56:37.684Z,7.10
2023-02-01T23:59:07.446Z,7.20
